Monday, February 19, 2018, 10:06 AM GMT
Back to Local

CYPD, Port Hawkesbury

Location: , , Canada Lat: 45.667
Local Time: 10:06 AM GMT (10:06 GMT) Lon: -61.383
Time Zone: GMT Elev: 374 ft

Show me the last for .
Show Coded

Time T Td Feel RH Dir Speed Gust Alt SLP Vis Weather Sky Remarks
2018-02-19 09:00 21 18 - 85 Variable 2 - 30.45 30.48 9 CLR None
2018-02-19 08:26 23 19 17 85 330° 5 - 30.45 30.47 9 SCT014 None
2018-02-19 08:00 23 19 16 85 320° 6 - 30.43 30.46 9 OVC014 None
2018-02-19 07:00 23 19 16 85 290° 6 - 30.43 30.45 9 OVC014 None
2018-02-19 06:30 23 19 15 85 300° 7 - 30.39 30.42 9 BKN012 Pressure rising rapidly
2018-02-19 06:00 23 19 14 85 330° 8 - 30.36 30.39 9 SCT012 None
2018-02-19 05:03 23 21 15 92 300° 7 - 30.37 30.40 9 SCT007 None
2018-02-19 05:00 23 21 13 92 300° 9 - 30.37 30.39 9 BKN007 None
2018-02-19 04:37 25 21 11 85 310° 8 17 30.36 30.38 9 BKN007 OVC022 None
2018-02-19 04:11 23 21 7 92 290° 15 23 30.33 30.36 9 SCT007 BKN022 Pressure rising rapidly
2018-02-19 04:07 23 21 7 92 290° 16 23 30.33 30.35 9 SCT007 Pressure rising rapidly
2018-02-19 04:00 23 21 8 92 290° 16 22 30.31 30.34 9 BKN007 Pressure rising rapidly
2018-02-19 03:00 23 21 15 92 310° 7 - 30.29 30.32 9 BKN007 OVC017 Pressure rising rapidly
2018-02-19 02:11 21 19 12 92 300° 8 - 30.25 30.27 9 BKN009 OVC020 None
2018-02-19 02:00 21 19 14 92 320° 6 - 30.24 30.27 9 OVC020 None
2018-02-19 01:27 19 16 11 85 310° 6 - 30.22 30.24 9 BKN020 None
2018-02-19 01:00 19 16 11 85 300° 6 - 30.20 30.23 9 FEW022 Pressure rising rapidly
2018-02-19 00:00 19 14 - 79 Variable 2 - 30.16 30.19 9 CLR None
2018-02-18 23:00 19 16 13 85 350° 5 - 30.13 30.16 9 FEW055 None
2018-02-18 22:00 21 18 14 85 360° 6 - 30.09 30.11 9 FEW036 BKN180 None
2018-02-18 21:00 23 19 15 85 30° 7 - 30.04 30.06 9 BKN041 OVC070 None
2018-02-18 20:00 23 19 14 85 40° 8 - 30.02 30.04 9 FEW041 SCT075 None
2018-02-18 19:12 23 19 9 85 60° 13 18 30.00 30.02 9 SCT015 SCT020 BKN044 None
2018-02-18 19:00 25 19 13 79 70° 13 - 30.00 30.02 9 BKN015 BKN020 None
2018-02-18 18:45 25 19 11 79 70° 12 17 30.00 30.02 9 OVC015 None
2018-02-18 18:00 23 21 11 92 70° 13 - 30.00 30.03 7 -SN BKN011 OVC014 None
2018-02-18 17:51 23 21 9 92 70° 12 17 30.00 30.03 6 -SN OVC011 None
2018-02-18 17:34 23 21 14 92 50° 8 - 30.00 30.02 3 -SN OVC011 None
2018-02-18 17:00 23 19 14 85 50° 8 - 30.00 30.03 1 -SN BKN011 OVC025 None
2018-02-18 16:03 21 19 12 92 40° 8 - 30.03 30.06 2 -SN OVC011 Pressure falling rapidly
2018-02-18 16:00 21 19 12 92 50° 8 - 30.04 30.07 2 -SN OVC009 None
2018-02-18 15:06 21 18 12 85 40° 8 - 30.07 30.10 2 -SN OVC009 None
2018-02-18 15:00 21 18 11 85 40° 9 - 30.07 30.10 3 -SN OVC009 None
2018-02-18 14:37 21 18 10 85 40° 10 - 30.07 30.10 3 -SN BKN009 BKN015 OVC021 Pressure falling rapidly
2018-02-18 14:36 21 18 11 85 40° 9 - 30.07 30.10 2 -SN BKN009 BKN015 OVC019 None
2018-02-18 14:00 19 16 9 85 50° 8 - 30.09 30.12 0 -SN VV017 None
2018-02-18 13:00 18 16 7 92 40° 8 - 30.14 30.17 1 -SN OVC012 Pressure falling rapidly
2018-02-18 12:56 18 16 6 92 40° 9 - 30.15 30.18 2 -SN OVC012 None
2018-02-18 12:53 18 14 6 85 50° 9 - 30.15 30.18 5 -SN OVC012 None
2018-02-18 12:48 18 14 6 85 50° 9 - 30.16 30.19 9 -SN OVC012 None
2018-02-18 12:00 16 12 4 85 60° 9 - 30.17 30.20 9 OVC012 None
2018-02-18 11:00 14 10 3 85 60° 8 - 30.18 30.21 9 OVC014 None

Support USWX by starting your Amazon purchase here.